Time,TemperatureF,DewpointF,PressureIn,WindDirection,WindDirectionDegrees,WindSpeedMPH,WindSpeedGustMPH,Humidity,HourlyPrecipIn,Conditions,Clouds,dailyrainin,SoftwareType,DateUTC
2013-01-12 00:00:00,49.7,46.9,29.12,NW,308,3.0,3.0,90,0.00,,,0.00,Wunderground v.1.15,2013-01-12 05:00:00,
2013-01-12 00:09:00,49.7,46.9,29.13,WNW,292,3.0,5.0,90,0.00,,,0.00,Wunderground v.1.15,2013-01-12 05:09:00,
2013-01-12 00:14:00,49.6,46.8,29.13,WNW,286,3.0,5.0,90,0.00,,,0.00,Wunderground v.1.15,2013-01-12 05:14:00,
2013-01-12 00:19:00,49.5,46.7,29.12,West,268,2.0,2.0,90,0.00,,,0.00,Wunderground v.1.15,2013-01-12 05:19:00,
2013-01-12 00:24:00,49.4,46.6,29.12,West,259,1.0,4.0,90,0.00,,,0.00,Wunderground v.1.15,2013-01-12 05:24:00,
2013-01-12 00:29:00,49.4,46.9,29.12,WNW,295,2.0,2.0,91,0.00,,,0.00,Wunderground v.1.15,2013-01-12 05:29:00,
2013-01-12 00:34:00,49.3,46.8,29.13,West,268,2.0,2.0,91,0.00,,,0.00,Wunderground v.1.15,2013-01-12 05:34:00,
2013-01-12 00:39:00,49.4,46.9,29.13,WNW,290,2.0,2.0,91,0.00,,,0.00,Wunderground v.1.15,2013-01-12 05:39:00,
2013-01-12 00:44:00,49.3,46.8,29.13,WNW,290,2.0,2.0,91,0.00,,,0.00,Wunderground v.1.15,2013-01-12 05:44:00,
2013-01-12 00:50:00,49.3,46.8,29.13,West,267,2.0,2.0,91,0.00,,,0.00,Wunderground v.1.15,2013-01-12 05:50:00,
2013-01-12 00:55:00,49.3,46.8,29.12,WNW,284,1.0,2.0,91,0.00,,,0.00,Wunderground v.1.15,2013-01-12 05:55:00,
2013-01-12 01:00:00,49.3,46.8,29.13,WNW,293,1.0,1.0,91,0.00,,,0.00,Wunderground v.1.15,2013-01-12 06:00:00,
2013-01-12 01:09:00,49.3,46.8,29.13,West,268,1.0,14.0,91,0.00,,,0.00,Wunderground v.1.15,2013-01-12 06:09:00,
2013-01-12 01:14:00,49.3,46.8,29.12,West,273,2.0,14.0,91,0.00,,,0.00,Wunderground v.1.15,2013-01-12 06:14:00,
2013-01-12 01:20:00,49.3,46.8,29.12,West,277,2.0,2.0,91,0.00,,,0.00,Wunderground v.1.15,2013-01-12 06:20:00,
2013-01-12 01:25:00,49.2,46.7,29.12,WSW,244,3.0,3.0,91,0.00,,,0.00,Wunderground v.1.15,2013-01-12 06:25:00,
2013-01-12 01:30:00,49.2,46.7,29.13,West,261,3.0,3.0,91,0.00,,,0.00,Wunderground v.1.15,2013-01-12 06:30:00,
2013-01-12 01:35:00,49.1,46.6,29.13,West,270,3.0,4.0,91,0.00,,,0.00,Wunderground v.1.15,2013-01-12 06:35:00,
2013-01-12 01:40:00,49.0,46.5,29.13,WNW,292,4.0,4.0,91,0.00,,,0.00,Wunderground v.1.15,2013-01-12 06:40:00,
2013-01-12 01:45:00,48.9,46.7,29.14,WSW,256,3.0,14.0,92,0.00,,,0.00,Wunderground v.1.15,2013-01-12 06:45:00,
2013-01-12 01:55:00,49.0,46.8,29.14,WSW,248,2.0,14.0,92,0.00,,,0.00,Wunderground v.1.15,2013-01-12 06:55:00,
2013-01-12 02:00:00,49.0,46.8,29.14,WNW,292,3.0,14.0,92,0.00,,,0.00,Wunderground v.1.15,2013-01-12 07:00:00,
2013-01-12 02:05:00,49.2,47.0,29.15,West,281,3.0,14.0,92,0.00,,,0.00,Wunderground v.1.15,2013-01-12 07:05:00,
2013-01-12 02:10:00,49.2,47.0,29.15,West,280,3.0,14.0,92,0.00,,,0.00,Wunderground v.1.15,2013-01-12 07:10:00,
2013-01-12 02:15:00,49.4,47.2,29.15,West,267,3.0,14.0,92,0.00,,,0.00,Wunderground v.1.15,2013-01-12 07:15:00,
2013-01-12 02:20:00,49.4,47.2,29.15,WSW,253,4.0,14.0,92,0.00,,,0.00,Wunderground v.1.15,2013-01-12 07:20:00,
2013-01-12 02:30:00,49.4,46.9,29.15,West,275,4.0,14.0,91,0.00,,,0.00,Wunderground v.1.15,2013-01-12 07:30:00,
2013-01-12 02:35:00,49.3,47.1,29.16,West,275,4.0,14.0,92,0.00,,,0.00,Wunderground v.1.15,2013-01-12 07:35:00,
2013-01-12 02:40:00,49.2,47.0,29.15,West,280,4.0,14.0,92,0.00,,,0.00,Wunderground v.1.15,2013-01-12 07:40:00,
2013-01-12 02:45:00,49.1,46.9,29.15,West,273,6.0,14.0,92,0.00,,,0.00,Wunderground v.1.15,2013-01-12 07:45:00,
2013-01-12 02:50:00,49.0,46.8,29.15,WSW,256,6.0,14.0,92,0.00,,,0.00,Wunderground v.1.15,2013-01-12 07:50:00,
2013-01-12 02:55:00,49.0,46.8,29.15,WSW,258,5.0,14.0,92,0.00,,,0.00,Wunderground v.1.15,2013-01-12 07:55:00,
2013-01-12 03:00:00,48.9,46.7,29.15,WSW,237,7.0,14.0,92,0.00,,,0.00,Wunderground v.1.15,2013-01-12 08:00:00,
2013-01-12 03:05:00,48.9,46.7,29.15,WSW,256,7.0,14.0,92,0.00,,,0.00,Wunderground v.1.15,2013-01-12 08:05:00,
2013-01-12 03:10:00,49.0,46.8,29.15,WSW,250,4.0,14.0,92,0.00,,,0.00,Wunderground v.1.15,2013-01-12 08:10:00,
2013-01-12 03:15:00,49.0,46.8,29.15,West,262,6.0,14.0,92,0.00,,,0.00,Wunderground v.1.15,2013-01-12 08:15:00,
2013-01-12 03:20:00,48.9,46.7,29.14,West,268,7.0,14.0,92,0.00,,,0.00,Wunderground v.1.15,2013-01-12 08:20:00,
2013-01-12 03:25:00,48.9,46.7,29.15,West,265,7.0,14.0,92,0.00,,,0.00,Wunderground v.1.15,2013-01-12 08:25:00,
2013-01-12 03:35:00,48.7,46.5,29.15,West,265,5.0,14.0,92,0.00,,,0.00,Wunderground v.1.15,2013-01-12 08:35:00,
2013-01-12 03:40:00,48.6,46.7,29.14,WSW,255,5.0,14.0,93,0.00,,,0.00,Wunderground v.1.15,2013-01-12 08:40:00,
2013-01-12 03:45:00,48.5,46.3,29.15,West,265,6.0,14.0,92,0.00,,,0.00,Wunderground v.1.15,2013-01-12 08:45:00,
2013-01-12 03:50:00,48.3,46.1,29.15,West,267,8.0,14.0,92,0.00,,,0.00,Wunderground v.1.15,2013-01-12 08:50:00,
2013-01-12 03:55:00,48.1,46.2,29.15,WSW,245,7.0,14.0,93,0.00,,,0.00,Wunderground v.1.15,2013-01-12 08:55:00,
2013-01-12 04:05:00,47.7,45.8,29.14,West,261,8.0,14.0,93,0.00,,,0.00,Wunderground v.1.15,2013-01-12 09:05:00,
2013-01-12 04:10:00,47.6,45.7,29.14,West,263,8.0,8.0,93,0.00,,,0.00,Wunderground v.1.15,2013-01-12 09:10:00,
2013-01-12 04:15:00,47.5,45.6,29.14,West,266,8.0,12.0,93,0.00,,,0.00,Wunderground v.1.15,2013-01-12 09:15:00,
2013-01-12 04:20:00,47.4,45.5,29.13,West,262,9.0,14.0,93,0.00,,,0.00,Wunderground v.1.15,2013-01-12 09:20:00,
2013-01-12 04:25:00,47.4,45.5,29.13,West,267,10.0,14.0,93,0.00,,,0.00,Wunderground v.1.15,2013-01-12 09:25:00,
2013-01-12 04:30:00,47.5,45.6,29.12,WSW,254,10.0,14.0,93,0.00,,,0.00,Wunderground v.1.15,2013-01-12 09:30:00,
2013-01-12 04:39:00,47.4,45.5,29.12,West,273,10.0,14.0,93,0.00,,,0.00,Wunderground v.1.15,2013-01-12 09:39:00,
2013-01-12 04:44:00,47.3,45.4,29.12,WSW,251,10.0,14.0,93,0.00,,,0.00,Wunderground v.1.15,2013-01-12 09:44:00,
2013-01-12 04:49:00,47.2,45.3,29.13,West,272,9.0,9.0,93,0.00,,,0.00,Wunderground v.1.15,2013-01-12 09:49:00,
2013-01-12 04:54:00,47.2,45.3,29.12,WSW,258,8.0,14.0,93,0.00,,,0.00,Wunderground v.1.15,2013-01-12 09:54:00,
2013-01-12 04:59:00,47.1,45.2,29.13,West,261,8.0,8.0,93,0.00,,,0.00,Wunderground v.1.15,2013-01-12 09:59:00,
2013-01-12 05:09:00,47.2,45.3,29.13,West,261,5.0,14.0,93,0.00,,,0.00,Wunderground v.1.15,2013-01-12 10:09:00,
2013-01-12 05:14:00,47.2,45.3,29.13,West,266,5.0,14.0,93,0.00,,,0.00,Wunderground v.1.15,2013-01-12 10:14:00,
2013-01-12 05:19:00,47.2,45.3,29.13,West,265,8.0,14.0,93,0.00,,,0.00,Wunderground v.1.15,2013-01-12 10:19:00,
2013-01-12 05:24:00,47.3,45.4,29.14,West,263,9.0,14.0,93,0.00,,,0.00,Wunderground v.1.15,2013-01-12 10:24:00,
2013-01-12 05:29:00,47.2,45.3,29.14,West,263,8.0,14.0,93,0.00,,,0.00,Wunderground v.1.15,2013-01-12 10:29:00,
2013-01-12 05:34:00,47.2,45.3,29.13,West,261,9.0,14.0,93,0.00,,,0.00,Wunderground v.1.15,2013-01-12 10:34:00,
2013-01-12 05:40:00,47.2,45.3,29.14,West,269,10.0,10.0,93,0.00,,,0.00,Wunderground v.1.15,2013-01-12 10:40:00,
2013-01-12 05:45:00,47.1,45.2,29.14,WSW,254,9.0,14.0,93,0.00,,,0.00,Wunderground v.1.15,2013-01-12 10:45:00,
2013-01-12 05:50:00,46.9,45.0,29.13,West,261,9.0,9.0,93,0.00,,,0.00,Wunderground v.1.15,2013-01-12 10:50:00,
2013-01-12 05:55:00,46.9,45.0,29.14,WSW,257,9.0,11.0,93,0.00,,,0.00,Wunderground v.1.15,2013-01-12 10:55:00,
2013-01-12 06:00:00,46.9,45.0,29.14,West,267,8.0,14.0,93,0.00,,,0.00,Wunderground v.1.15,2013-01-12 11:00:00,
2013-01-12 06:05:00,46.8,44.9,29.14,West,269,8.0,14.0,93,0.00,,,0.00,Wunderground v.1.15,2013-01-12 11:05:00,
2013-01-12 06:15:00,46.7,44.8,29.14,WSW,254,9.0,14.0,93,0.00,,,0.00,Wunderground v.1.15,2013-01-12 11:15:00,
2013-01-12 06:20:00,46.7,44.8,29.15,West,265,9.0,14.0,93,0.00,,,0.00,Wunderground v.1.15,2013-01-12 11:20:00,
2013-01-12 06:25:00,46.8,44.9,29.14,WSW,250,9.0,14.0,93,0.00,,,0.00,Wunderground v.1.15,2013-01-12 11:25:00,
2013-01-12 06:30:00,46.9,45.0,29.14,WSW,257,9.0,9.0,93,0.00,,,0.00,Wunderground v.1.15,2013-01-12 11:30:00,
2013-01-12 06:35:00,47.0,45.1,29.14,WSW,252,9.0,14.0,93,0.00,,,0.00,Wunderground v.1.15,2013-01-12 11:35:00,
2013-01-12 06:45:00,46.8,44.9,29.15,West,277,8.0,14.0,93,0.00,,,0.00,Wunderground v.1.15,2013-01-12 11:45:00,
2013-01-12 06:50:00,46.7,44.8,29.15,WSW,258,8.0,8.0,93,0.00,,,0.00,Wunderground v.1.15,2013-01-12 11:50:00,
2013-01-12 06:55:00,46.4,44.5,29.15,WSW,254,8.0,14.0,93,0.00,,,0.00,Wunderground v.1.15,2013-01-12 11:55:00,
2013-01-12 07:00:00,46.3,44.4,29.14,SW,232,8.0,14.0,93,0.00,,,0.00,Wunderground v.1.15,2013-01-12 12:00:00,
2013-01-12 07:05:00,45.9,44.0,29.14,WSW,250,9.0,14.0,93,0.00,,,0.00,Wunderground v.1.15,2013-01-12 12:05:00,
2013-01-12 07:10:00,45.7,43.8,29.14,West,267,8.0,8.0,93,0.00,,,0.00,Wunderground v.1.15,2013-01-12 12:10:00,
2013-01-12 07:20:00,45.6,43.7,29.14,WSW,250,8.0,14.0,93,0.00,,,0.00,Wunderground v.1.15,2013-01-12 12:20:00,
2013-01-12 07:25:00,45.6,43.7,29.14,WSW,257,9.0,14.0,93,0.00,,,0.00,Wunderground v.1.15,2013-01-12 12:25:00,
2013-01-12 07:30:00,45.7,44.1,29.15,WSW,250,9.0,9.0,94,0.00,,,0.00,Wunderground v.1.15,2013-01-12 12:30:00,
2013-01-12 07:35:00,45.5,43.6,29.15,West,259,10.0,11.0,93,0.00,,,0.00,Wunderground v.1.15,2013-01-12 12:35:00,
2013-01-12 07:40:00,45.3,43.4,29.15,WSW,249,10.0,14.0,93,0.00,,,0.00,Wunderground v.1.15,2013-01-12 12:40:00,
2013-01-12 07:50:00,45.1,43.2,29.14,West,264,11.0,11.0,93,0.00,,,0.00,Wunderground v.1.15,2013-01-12 12:50:00,
2013-01-12 07:55:00,45.2,43.6,29.14,SW,234,10.0,14.0,94,0.00,,,0.00,Wunderground v.1.15,2013-01-12 12:55:00,
2013-01-12 08:00:00,45.3,43.7,29.14,West,264,9.0,9.0,94,0.00,,,0.00,Wunderground v.1.15,2013-01-12 13:00:00,
2013-01-12 08:05:00,45.4,43.8,29.15,West,267,8.0,14.0,94,0.00,,,0.00,Wunderground v.1.15,2013-01-12 13:05:00,
2013-01-12 08:10:00,45.2,43.6,29.14,West,259,8.0,14.0,94,0.00,,,0.00,Wunderground v.1.15,2013-01-12 13:10:00,
2013-01-12 08:15:00,45.4,43.8,29.15,WSW,250,10.0,14.0,94,0.00,,,0.00,Wunderground v.1.15,2013-01-12 13:15:00,
2013-01-12 08:24:00,45.6,43.7,29.14,WSW,242,9.0,14.0,93,0.00,,,0.00,Wunderground v.1.15,2013-01-12 13:24:00,
2013-01-12 08:29:00,45.8,43.9,29.14,WSW,253,9.0,14.0,93,0.00,,,0.00,Wunderground v.1.15,2013-01-12 13:29:00,
2013-01-12 08:34:00,46.0,44.1,29.15,WSW,258,10.0,14.0,93,0.00,,,0.00,Wunderground v.1.15,2013-01-12 13:34:00,
2013-01-12 08:39:00,46.0,44.1,29.14,WSW,254,10.0,10.0,93,0.00,,,0.00,Wunderground v.1.15,2013-01-12 13:39:00,
2013-01-12 08:44:00,46.1,44.2,29.14,WSW,246,10.0,14.0,93,0.00,,,0.00,Wunderground v.1.15,2013-01-12 13:44:00,
2013-01-12 08:54:00,46.4,44.5,29.14,WSW,256,9.0,14.0,93,0.00,,,0.00,Wunderground v.1.15,2013-01-12 13:54:00,
2013-01-12 08:59:00,46.5,44.6,29.15,WSW,249,8.0,8.0,93,0.00,,,0.00,Wunderground v.1.15,2013-01-12 13:59:00,
2013-01-12 09:04:00,46.6,44.7,29.14,SW,236,7.0,14.0,93,0.00,,,0.00,Wunderground v.1.15,2013-01-12 14:04:00,
2013-01-12 09:09:00,46.6,44.4,29.14,West,266,8.0,14.0,92,0.00,,,0.00,Wunderground v.1.15,2013-01-12 14:09:00,
2013-01-12 09:14:00,46.9,45.0,29.15,WSW,258,8.0,14.0,93,0.00,,,0.00,Wunderground v.1.15,2013-01-12 14:14:00,
2013-01-12 09:19:00,47.3,45.1,29.15,West,266,8.0,8.0,92,0.00,,,0.00,Wunderground v.1.15,2013-01-12 14:19:00,
2013-01-12 09:25:00,47.4,45.2,29.14,WSW,257,8.0,9.0,92,0.00,,,0.00,Wunderground v.1.15,2013-01-12 14:25:00,
2013-01-12 09:30:00,47.5,45.3,29.14,WSW,241,8.0,14.0,92,0.00,,,0.00,Wunderground v.1.15,2013-01-12 14:30:00,
2013-01-12 09:35:00,47.8,45.6,29.14,West,259,8.0,14.0,92,0.00,,,0.00,Wunderground v.1.15,2013-01-12 14:35:00,
2013-01-12 09:40:00,48.2,46.0,29.14,WSW,250,8.0,14.0,92,0.00,,,0.00,Wunderground v.1.15,2013-01-12 14:40:00,
2013-01-12 09:45:00,48.8,46.3,29.13,WSW,249,8.0,14.0,91,0.00,,,0.00,Wunderground v.1.15,2013-01-12 14:45:00,
2013-01-12 09:50:00,49.5,46.7,29.13,WSW,248,10.0,14.0,90,0.00,,,0.00,Wunderground v.1.15,2013-01-12 14:50:00,
2013-01-12 10:00:00,49.8,46.7,29.14,West,272,11.0,11.0,89,0.00,,,0.00,Wunderground v.1.15,2013-01-12 15:00:00,
2013-01-12 10:05:00,50.0,47.2,29.15,West,279,6.0,14.0,90,0.00,,,0.00,Wunderground v.1.15,2013-01-12 15:05:00,
2013-01-12 10:10:00,50.3,47.5,29.15,West,279,2.0,2.0,90,0.00,,,0.00,Wunderground v.1.15,2013-01-12 15:10:00,
2013-01-12 10:15:00,50.4,47.3,29.14,WSW,257,0.0,3.0,89,0.00,,,0.00,Wunderground v.1.15,2013-01-12 15:15:00,
2013-01-12 10:20:00,50.7,47.6,29.15,West,269,1.0,1.0,89,0.00,,,0.00,Wunderground v.1.15,2013-01-12 15:20:00,
2013-01-12 10:30:00,51.8,48.7,29.15,WNW,291,1.0,14.0,89,0.00,,,0.00,Wunderground v.1.15,2013-01-12 15:30:00,
2013-01-12 10:35:00,52.5,49.4,29.14,WNW,285,1.0,14.0,89,0.00,,,0.00,Wunderground v.1.15,2013-01-12 15:35:00,
2013-01-12 10:40:00,53.2,49.7,29.15,WNW,294,1.0,14.0,88,0.00,,,0.00,Wunderground v.1.15,2013-01-12 15:40:00,
2013-01-12 10:45:00,53.7,49.9,29.15,WNW,285,2.0,14.0,87,0.00,,,0.00,Wunderground v.1.15,2013-01-12 15:45:00,
2013-01-12 10:50:00,54.1,50.0,29.14,WNW,290,1.0,1.0,86,0.00,,,0.00,Wunderground v.1.15,2013-01-12 15:50:00,
2013-01-12 10:55:00,54.6,50.5,29.14,WNW,291,1.0,14.0,86,0.00,,,0.00,Wunderground v.1.15,2013-01-12 15:55:00,
2013-01-12 11:05:00,55.4,50.6,29.13,WNW,296,1.0,2.0,84,0.00,,,0.00,Wunderground v.1.15,2013-01-12 16:05:00,
2013-01-12 11:10:00,55.5,50.7,29.13,NW,312,1.0,14.0,84,0.00,,,0.00,Wunderground v.1.15,2013-01-12 16:10:00,
2013-01-12 11:15:00,55.6,50.5,29.13,WNW,284,1.0,14.0,83,0.00,,,0.00,Wunderground v.1.15,2013-01-12 16:15:00,
2013-01-12 11:20:00,55.6,50.8,29.13,WNW,286,2.0,14.0,84,0.00,,,0.00,Wunderground v.1.15,2013-01-12 16:20:00,
2013-01-12 11:25:00,55.6,50.8,29.13,WNW,292,2.0,14.0,84,0.00,,,0.00,Wunderground v.1.15,2013-01-12 16:25:00,
2013-01-12 11:34:00,55.7,50.9,29.13,WNW,289,1.0,14.0,84,0.00,,,0.00,Wunderground v.1.15,2013-01-12 16:34:00,
2013-01-12 11:39:00,55.8,51.0,29.12,WNW,294,1.0,1.0,84,0.00,,,0.00,Wunderground v.1.15,2013-01-12 16:39:00,
2013-01-12 11:44:00,56.0,51.2,29.12,WNW,288,1.0,14.0,84,0.00,,,0.00,Wunderground v.1.15,2013-01-12 16:44:00,
2013-01-12 11:49:00,56.3,51.5,29.12,WNW,291,1.0,1.0,84,0.00,,,0.00,Wunderground v.1.15,2013-01-12 16:49:00,
2013-01-12 11:54:00,56.9,51.8,29.12,NW,306,1.0,14.0,83,0.00,,,0.00,Wunderground v.1.15,2013-01-12 16:54:00,
2013-01-12 11:59:00,57.6,52.5,29.12,WNW,302,1.0,14.0,83,0.00,,,0.00,Wunderground v.1.15,2013-01-12 16:59:00,
2013-01-12 12:09:00,58.5,52.7,29.12,WNW,300,2.0,2.0,81,0.00,,,0.00,Wunderground v.1.15,2013-01-12 17:09:00,
2013-01-12 12:14:00,58.6,52.4,29.12,WNW,286,2.0,14.0,80,0.00,,,0.00,Wunderground v.1.15,2013-01-12 17:14:00,
2013-01-12 12:19:00,58.7,52.5,29.12,NW,312,2.0,2.0,80,0.00,,,0.00,Wunderground v.1.15,2013-01-12 17:19:00,
2013-01-12 12:24:00,58.8,52.6,29.11,NW,318,2.0,14.0,80,0.00,,,0.00,Wunderground v.1.15,2013-01-12 17:24:00,
2013-01-12 12:29:00,58.9,52.7,29.12,WNW,294,2.0,14.0,80,0.00,,,0.00,Wunderground v.1.15,2013-01-12 17:29:00,
2013-01-12 12:39:00,59.1,52.6,29.12,NW,315,3.0,3.0,79,0.00,,,0.00,Wunderground v.1.15,2013-01-12 17:39:00,
2013-01-12 12:44:00,59.1,52.6,29.11,NW,305,3.0,14.0,79,0.00,,,0.00,Wunderground v.1.15,2013-01-12 17:44:00,
2013-01-12 12:49:00,59.3,52.8,29.11,WNW,301,3.0,3.0,79,0.00,,,0.00,Wunderground v.1.15,2013-01-12 17:49:00,
2013-01-12 12:54:00,59.4,52.9,29.11,WNW,300,2.0,5.0,79,0.00,,,0.00,Wunderground v.1.15,2013-01-12 17:54:00,
2013-01-12 12:59:00,59.6,52.7,29.11,WNW,302,3.0,3.0,78,0.00,,,0.00,Wunderground v.1.15,2013-01-12 17:59:00,
2013-01-12 13:04:00,59.6,52.4,29.11,WNW,296,3.0,14.0,77,0.00,,,0.00,Wunderground v.1.15,2013-01-12 18:04:00,
2013-01-12 13:10:00,59.5,52.3,29.11,NW,315,3.0,3.0,77,0.00,,,0.00,Wunderground v.1.15,2013-01-12 18:10:00,
2013-01-12 13:15:00,59.4,52.5,29.11,WNW,290,3.0,14.0,78,0.00,,,0.00,Wunderground v.1.15,2013-01-12 18:15:00,
2013-01-12 13:20:00,59.4,52.5,29.11,WNW,301,3.0,3.0,78,0.00,,,0.00,Wunderground v.1.15,2013-01-12 18:20:00,
2013-01-12 13:25:00,59.4,52.5,29.11,NW,325,3.0,14.0,78,0.00,,,0.00,Wunderground v.1.15,2013-01-12 18:25:00,
2013-01-12 13:30:00,59.5,52.3,29.11,NW,313,3.0,3.0,77,0.00,,,0.00,Wunderground v.1.15,2013-01-12 18:30:00,
2013-01-12 13:35:00,59.6,52.4,29.11,NW,308,4.0,4.0,77,0.00,,,0.00,Wunderground v.1.15,2013-01-12 18:35:00,
2013-01-12 13:45:00,60.3,52.7,29.11,NW,323,4.0,14.0,76,0.00,,,0.00,Wunderground v.1.15,2013-01-12 18:45:00,
2013-01-12 13:50:00,60.5,53.3,29.10,NW,310,5.0,14.0,77,0.00,,,0.00,Wunderground v.1.15,2013-01-12 18:50:00,
2013-01-12 13:55:00,60.4,52.8,29.10,WNW,288,5.0,14.0,76,0.00,,,0.00,Wunderground v.1.15,2013-01-12 18:55:00,
2013-01-12 14:00:00,60.3,52.7,29.10,NW,311,5.0,5.0,76,0.00,,,0.00,Wunderground v.1.15,2013-01-12 19:00:00,
2013-01-12 14:05:00,60.1,52.9,29.10,West,275,4.0,8.0,77,0.00,,,0.00,Wunderground v.1.15,2013-01-12 19:05:00,
2013-01-12 14:15:00,60.0,52.8,29.11,NNW,328,4.0,14.0,77,0.00,,,0.00,Wunderground v.1.15,2013-01-12 19:15:00,
2013-01-12 14:20:00,60.1,52.9,29.11,WNW,285,4.0,14.0,77,0.00,,,0.00,Wunderground v.1.15,2013-01-12 19:20:00,
2013-01-12 14:25:00,60.0,52.8,29.11,WNW,283,4.0,14.0,77,0.00,,,0.00,Wunderground v.1.15,2013-01-12 19:25:00,
2013-01-12 14:30:00,60.0,53.1,29.11,NW,307,4.0,14.0,78,0.00,,,0.00,Wunderground v.1.15,2013-01-12 19:30:00,
2013-01-12 14:35:00,60.0,52.8,29.11,West,273,4.0,14.0,77,0.00,,,0.00,Wunderground v.1.15,2013-01-12 19:35:00,
2013-01-12 14:40:00,59.8,52.9,29.11,WNW,289,5.0,5.0,78,0.00,,,0.00,Wunderground v.1.15,2013-01-12 19:40:00,
2013-01-12 14:49:00,59.6,52.7,29.11,NNW,339,4.0,4.0,78,0.00,,,0.00,Wunderground v.1.15,2013-01-12 19:49:00,
2013-01-12 14:54:00,59.5,52.6,29.11,NW,308,4.0,14.0,78,0.00,,,0.00,Wunderground v.1.15,2013-01-12 19:54:00,
2013-01-12 14:59:00,59.4,52.9,29.11,WNW,283,3.0,14.0,79,0.00,,,0.00,Wunderground v.1.15,2013-01-12 19:59:00,
2013-01-12 15:04:00,59.4,52.9,29.12,WNW,286,3.0,14.0,79,0.00,,,0.00,Wunderground v.1.15,2013-01-12 20:04:00,
2013-01-12 15:09:00,59.4,52.9,29.12,WNW,296,3.0,14.0,79,0.00,,,0.00,Wunderground v.1.15,2013-01-12 20:09:00,
2013-01-12 15:19:00,59.4,52.9,29.11,WNW,292,3.0,3.0,79,0.00,,,0.00,Wunderground v.1.15,2013-01-12 20:19:00,
2013-01-12 15:24:00,59.5,53.0,29.12,West,271,3.0,5.0,79,0.00,,,0.00,Wunderground v.1.15,2013-01-12 20:24:00,
2013-01-12 15:29:00,59.4,52.9,29.12,West,265,4.0,4.0,79,0.00,,,0.00,Wunderground v.1.15,2013-01-12 20:29:00,
2013-01-12 15:34:00,59.3,52.8,29.12,NW,312,3.0,14.0,79,0.00,,,0.00,Wunderground v.1.15,2013-01-12 20:34:00,
2013-01-12 15:39:00,59.2,52.7,29.12,WNW,298,2.0,2.0,79,0.00,,,0.00,Wunderground v.1.15,2013-01-12 20:39:00,
2013-01-12 15:44:00,59.0,52.5,29.11,WNW,296,2.0,14.0,79,0.00,,,0.00,Wunderground v.1.15,2013-01-12 20:44:00,
2013-01-12 15:54:00,58.8,52.6,29.13,WNW,303,2.0,14.0,80,0.00,,,0.00,Wunderground v.1.15,2013-01-12 20:54:00,
2013-01-12 15:59:00,58.7,52.5,29.12,WNW,293,2.0,2.0,80,0.00,,,0.00,Wunderground v.1.15,2013-01-12 20:59:00,
2013-01-12 16:04:00,58.5,52.4,29.12,WNW,290,2.0,14.0,80,0.00,,,0.00,Wunderground v.1.15,2013-01-12 21:04:00,
2013-01-12 16:09:00,58.4,52.6,29.12,WNW,284,1.0,14.0,81,0.00,,,0.00,Wunderground v.1.15,2013-01-12 21:09:00,
2013-01-12 16:14:00,58.3,52.5,29.13,WNW,300,1.0,14.0,81,0.00,,,0.00,Wunderground v.1.15,2013-01-12 21:14:00,
2013-01-12 16:20:00,58.2,52.4,29.12,NW,312,2.0,2.0,81,0.00,,,0.00,Wunderground v.1.15,2013-01-12 21:20:00,
2013-01-12 16:25:00,58.1,52.3,29.12,WNW,284,2.0,14.0,81,0.00,,,0.00,Wunderground v.1.15,2013-01-12 21:25:00,
2013-01-12 16:30:00,57.9,52.1,29.12,NNW,336,2.0,2.0,81,0.00,,,0.00,Wunderground v.1.15,2013-01-12 21:30:00,
2013-01-12 16:35:00,57.6,52.1,29.12,West,271,2.0,4.0,82,0.00,,,0.00,Wunderground v.1.15,2013-01-12 21:35:00,
2013-01-12 16:40:00,57.4,51.9,29.13,WNW,298,2.0,2.0,82,0.00,,,0.00,Wunderground v.1.15,2013-01-12 21:40:00,
2013-01-12 16:49:00,57.0,51.9,29.13,NW,308,2.0,2.0,83,0.00,,,0.00,Wunderground v.1.15,2013-01-12 21:49:00,
2013-01-12 16:55:00,56.8,51.7,29.13,West,261,2.0,14.0,83,0.00,,,0.00,Wunderground v.1.15,2013-01-12 21:55:00,
2013-01-12 17:00:00,56.7,51.6,29.13,WNW,284,2.0,14.0,83,0.00,,,0.00,Wunderground v.1.15,2013-01-12 22:00:00,
2013-01-12 17:05:00,56.5,51.4,29.13,WNW,291,2.0,14.0,83,0.00,,,0.00,Wunderground v.1.15,2013-01-12 22:05:00,
2013-01-12 17:10:00,56.3,51.2,29.13,West,271,2.0,2.0,83,0.00,,,0.00,Wunderground v.1.15,2013-01-12 22:10:00,
2013-01-12 17:15:00,56.1,51.3,29.14,WSW,256,1.0,3.0,84,0.00,,,0.00,Wunderground v.1.15,2013-01-12 22:15:00,
2013-01-12 17:20:00,56.0,51.2,29.14,NNW,331,1.0,14.0,84,0.00,,,0.00,Wunderground v.1.15,2013-01-12 22:20:00,
2013-01-12 17:30:00,55.7,50.9,29.14,WNW,296,2.0,14.0,84,0.00,,,0.00,Wunderground v.1.15,2013-01-12 22:30:00,
2013-01-12 17:35:00,55.5,51.1,29.14,WNW,294,2.0,14.0,85,0.00,,,0.00,Wunderground v.1.15,2013-01-12 22:35:00,
2013-01-12 17:40:00,55.3,50.9,29.14,WNW,288,2.0,2.0,85,0.00,,,0.00,Wunderground v.1.15,2013-01-12 22:40:00,
2013-01-12 17:45:00,55.2,50.8,29.14,West,277,2.0,14.0,85,0.00,,,0.00,Wunderground v.1.15,2013-01-12 22:45:00,
2013-01-12 17:54:00,54.9,50.5,29.14,WNW,294,1.0,14.0,85,0.00,,,0.00,Wunderground v.1.15,2013-01-12 22:54:00,
2013-01-12 18:00:00,54.8,50.7,29.15,WNW,303,1.0,14.0,86,0.00,,,0.00,Wunderground v.1.15,2013-01-12 23:00:00,
2013-01-12 18:05:00,54.7,50.6,29.15,WNW,299,2.0,14.0,86,0.00,,,0.00,Wunderground v.1.15,2013-01-12 23:05:00,
2013-01-12 18:10:00,54.6,50.5,29.15,WNW,298,1.0,1.0,86,0.00,,,0.00,Wunderground v.1.15,2013-01-12 23:10:00,
2013-01-12 18:15:00,54.5,50.4,29.15,NW,305,1.0,14.0,86,0.00,,,0.00,Wunderground v.1.15,2013-01-12 23:15:00,
2013-01-12 18:20:00,54.4,50.3,29.15,WNW,289,1.0,14.0,86,0.00,,,0.00,Wunderground v.1.15,2013-01-12 23:20:00,
2013-01-12 18:25:00,54.2,50.1,29.15,WNW,286,1.0,14.0,86,0.00,,,0.00,Wunderground v.1.15,2013-01-12 23:25:00,
2013-01-12 18:35:00,54.1,50.3,29.15,NW,305,1.0,14.0,87,0.00,,,0.00,Wunderground v.1.15,2013-01-12 23:35:00,
2013-01-12 18:40:00,54.0,50.2,29.15,WNW,294,1.0,1.0,87,0.00,,,0.00,Wunderground v.1.15,2013-01-12 23:40:00,
2013-01-12 18:45:00,53.9,50.1,29.15,NW,304,1.0,14.0,87,0.00,,,0.00,Wunderground v.1.15,2013-01-12 23:45:00,
2013-01-12 18:50:00,53.9,50.1,29.15,NNW,329,1.0,14.0,87,0.00,,,0.00,Wunderground v.1.15,2013-01-12 23:50:00,
2013-01-12 18:55:00,53.8,50.0,29.15,West,281,1.0,14.0,87,0.00,,,0.00,Wunderground v.1.15,2013-01-12 23:55:00,
2013-01-12 19:05:00,53.7,49.9,29.15,WNW,300,1.0,14.0,87,0.00,,,0.00,Wunderground v.1.15,2013-01-13 00:05:00,
2013-01-12 19:14:00,53.6,50.1,29.16,West,277,1.0,3.0,88,0.00,,,0.00,Wunderground v.1.15,2013-01-13 00:14:00,
2013-01-12 19:19:00,53.5,50.0,29.16,WNW,298,1.0,14.0,88,0.00,,,0.00,Wunderground v.1.15,2013-01-13 00:19:00,
2013-01-12 19:24:00,53.5,50.0,29.16,NW,304,1.0,14.0,88,0.00,,,0.00,Wunderground v.1.15,2013-01-13 00:24:00,
2013-01-12 19:29:00,53.5,49.7,29.15,WNW,300,1.0,1.0,87,0.00,,,0.00,Wunderground v.1.15,2013-01-13 00:29:00,
2013-01-12 19:35:00,53.4,49.9,29.15,West,261,2.0,2.0,88,0.00,,,0.00,Wunderground v.1.15,2013-01-13 00:35:00,
2013-01-12 19:40:00,53.4,49.9,29.15,WNW,303,2.0,14.0,88,0.00,,,0.00,Wunderground v.1.15,2013-01-13 00:40:00,
2013-01-12 19:45:00,53.4,49.9,29.15,WNW,288,2.0,14.0,88,0.00,,,0.00,Wunderground v.1.15,2013-01-13 00:45:00,
2013-01-12 19:50:00,53.3,49.8,29.15,WNW,294,2.0,2.0,88,0.00,,,0.00,Wunderground v.1.15,2013-01-13 00:50:00,
2013-01-12 19:55:00,53.3,49.8,29.15,NW,304,2.0,5.0,88,0.00,,,0.00,Wunderground v.1.15,2013-01-13 00:55:00,
2013-01-12 20:00:00,53.4,49.9,29.15,NW,304,2.0,2.0,88,0.00,,,0.00,Wunderground v.1.15,2013-01-13 01:00:00,
2013-01-12 20:10:00,53.5,50.0,29.15,WNW,283,1.0,14.0,88,0.00,,,0.00,Wunderground v.1.15,2013-01-13 01:10:00,
2013-01-12 20:15:00,53.5,50.0,29.15,NW,310,1.0,14.0,88,0.00,,,0.00,Wunderground v.1.15,2013-01-13 01:15:00,
2013-01-12 20:20:00,53.7,50.2,29.15,WNW,300,2.0,2.0,88,0.00,,,0.00,Wunderground v.1.15,2013-01-13 01:20:00,
2013-01-12 20:25:00,53.7,50.2,29.15,WNW,302,2.0,14.0,88,0.00,,,0.00,Wunderground v.1.15,2013-01-13 01:25:00,
2013-01-12 20:30:00,53.8,50.3,29.15,WNW,295,2.0,14.0,88,0.00,,,0.00,Wunderground v.1.15,2013-01-13 01:30:00,
2013-01-12 20:35:00,53.8,50.3,29.15,WNW,301,2.0,14.0,88,0.00,,,0.00,Wunderground v.1.15,2013-01-13 01:35:00,
2013-01-12 20:40:00,53.9,50.1,29.15,WNW,292,1.0,1.0,87,0.00,,,0.00,Wunderground v.1.15,2013-01-13 01:40:00,
2013-01-12 20:45:00,54.0,50.2,29.15,WNW,296,1.0,2.0,87,0.00,,,0.00,Wunderground v.1.15,2013-01-13 01:45:00,
2013-01-12 20:50:00,54.1,50.3,29.15,NW,313,1.0,14.0,87,0.00,,,0.00,Wunderground v.1.15,2013-01-13 01:50:00,
2013-01-12 20:55:00,54.1,50.3,29.15,NNW,341,1.0,14.0,87,0.00,,,0.00,Wunderground v.1.15,2013-01-13 01:55:00,
2013-01-12 21:04:00,54.2,50.4,29.15,NW,307,1.0,14.0,87,0.00,,,0.00,Wunderground v.1.15,2013-01-13 02:04:00,
2013-01-12 21:09:00,54.1,50.3,29.15,WNW,301,1.0,1.0,87,0.00,,,0.00,Wunderground v.1.15,2013-01-13 02:09:00,
2013-01-12 21:15:00,54.2,50.4,29.15,WNW,288,1.0,14.0,87,0.00,,,0.00,Wunderground v.1.15,2013-01-13 02:15:00,
2013-01-12 21:20:00,54.2,50.4,29.15,WNW,290,1.0,1.0,87,0.00,,,0.00,Wunderground v.1.15,2013-01-13 02:20:00,
2013-01-12 21:25:00,54.2,50.4,29.15,NNW,327,1.0,14.0,87,0.00,,,0.00,Wunderground v.1.15,2013-01-13 02:25:00,
2013-01-12 21:30:00,54.1,50.3,29.15,NW,305,1.0,1.0,87,0.00,,,0.00,Wunderground v.1.15,2013-01-13 02:30:00,
2013-01-12 21:35:00,54.1,50.3,29.15,WNW,292,1.0,14.0,87,0.00,,,0.00,Wunderground v.1.15,2013-01-13 02:35:00,
2013-01-12 21:40:00,54.1,50.6,29.14,WNW,296,1.0,1.0,88,0.00,,,0.00,Wunderground v.1.15,2013-01-13 02:40:00,
2013-01-12 21:50:00,54.1,50.6,29.12,WNW,289,1.0,1.0,88,0.00,,,0.00,Wunderground v.1.15,2013-01-13 02:50:00,
2013-01-12 21:55:00,54.0,50.5,29.12,WNW,295,1.0,14.0,88,0.00,,,0.00,Wunderground v.1.15,2013-01-13 02:55:00,
2013-01-12 22:00:00,54.1,50.6,29.13,WNW,288,1.0,1.0,88,0.00,,,0.00,Wunderground v.1.15,2013-01-13 03:00:00,
2013-01-12 22:05:00,54.1,50.6,29.14,WNW,301,1.0,14.0,88,0.00,,,0.00,Wunderground v.1.15,2013-01-13 03:05:00,
2013-01-12 22:10:00,54.0,50.8,29.14,WNW,303,1.0,14.0,89,0.00,,,0.00,Wunderground v.1.15,2013-01-13 03:10:00,
2013-01-12 22:20:00,54.0,50.8,29.14,West,280,1.0,14.0,89,0.00,,,0.00,Wunderground v.1.15,2013-01-13 03:20:00,
2013-01-12 22:25:00,54.0,50.8,29.14,NW,309,1.0,14.0,89,0.00,,,0.00,Wunderground v.1.15,2013-01-13 03:25:00,
2013-01-12 22:30:00,54.1,50.9,29.14,NW,306,1.0,1.0,89,0.00,,,0.00,Wunderground v.1.15,2013-01-13 03:30:00,
2013-01-12 22:35:00,54.1,50.9,29.14,West,265,1.0,3.0,89,0.00,,,0.00,Wunderground v.1.15,2013-01-13 03:35:00,
2013-01-12 22:40:00,54.2,51.0,29.14,WNW,296,1.0,14.0,89,0.00,,,0.00,Wunderground v.1.15,2013-01-13 03:40:00,
2013-01-12 22:45:00,54.3,51.4,29.13,WSW,254,1.0,14.0,90,0.00,,,0.00,Wunderground v.1.15,2013-01-13 03:45:00,
2013-01-12 22:54:00,54.5,51.6,29.13,West,279,1.0,14.0,90,0.00,,,0.00,Wunderground v.1.15,2013-01-13 03:54:00,
2013-01-12 22:59:00,54.7,51.5,29.12,West,278,1.0,14.0,89,0.00,,,0.00,Wunderground v.1.15,2013-01-13 03:59:00,
2013-01-12 23:04:00,54.8,51.6,29.12,West,278,2.0,14.0,89,0.00,,,0.00,Wunderground v.1.15,2013-01-13 04:04:00,
2013-01-12 23:09:00,54.9,52.0,29.12,NW,304,2.0,14.0,90,0.00,,,0.00,Wunderground v.1.15,2013-01-13 04:09:00,
2013-01-12 23:14:00,55.0,51.8,29.12,WNW,289,2.0,14.0,89,0.00,,,0.00,Wunderground v.1.15,2013-01-13 04:14:00,
2013-01-12 23:24:00,55.1,51.9,29.12,WNW,296,2.0,4.0,89,0.00,,,0.00,Wunderground v.1.15,2013-01-13 04:24:00,
2013-01-12 23:29:00,55.1,51.9,29.12,WNW,283,2.0,14.0,89,0.00,,,0.00,Wunderground v.1.15,2013-01-13 04:29:00,
2013-01-12 23:34:00,55.1,51.9,29.13,WNW,288,2.0,14.0,89,0.00,,,0.00,Wunderground v.1.15,2013-01-13 04:34:00,
2013-01-12 23:39:00,55.1,51.9,29.12,West,271,2.0,2.0,89,0.00,,,0.00,Wunderground v.1.15,2013-01-13 04:39:00,
2013-01-12 23:44:00,55.3,52.1,29.12,West,272,2.0,14.0,89,0.00,,,0.00,Wunderground v.1.15,2013-01-13 04:44:00,
2013-01-12 23:49:00,55.3,52.1,29.11,West,271,2.0,14.0,89,0.00,,,0.00,Wunderground v.1.15,2013-01-13 04:49:00,